Time;durP1;ratioP1;P1;durP2;ratioP2;P2;SDS_P1;SDS_P2;PMS_P1;PMS_P2;Temp;Humidity;BMP_temperature;BMP_pressure;BME280_temperature;BME280_humidity;BME280_pressure;Samples;Min_cycle;Max_cycle;Signal;HPM_P1;HPM_P2
2021/11/21 00:00:16;;;;;;;26.35;10.98;;;;;;;;;;5054520;28;20695;-58
2021/11/21 00:02:42;;;;;;;30.65;12.68;;;;;;;;;;5061955;28;20033;-58
2021/11/21 00:05:08;;;;;;;21.88;10.80;;;;;;;;;;5062434;28;20029;-55
2021/11/21 00:07:34;;;;;;;25.67;10.73;;;;;;;;;;5064697;28;20021;-57
2021/11/21 00:10:01;;;;;;;26.10;11.23;;;;;;;;;;5052159;28;20021;-57
2021/11/21 00:12:27;;;;;;;27.70;11.63;;;;;;;;;;5063956;28;20063;-58
2021/11/21 00:14:53;;;;;;;22.48;10.27;;;;;;;;;;5055161;28;20025;-56
2021/11/21 00:17:19;;;;;;;26.45;11.02;;;;;;;;;;5051996;28;20044;-58
2021/11/21 00:19:45;;;;;;;26.88;11.50;;;;;;;;;;5051353;28;20037;-58
2021/11/21 00:22:13;;;;;;;23.52;10.73;;;;;;;;;;5052522;28;20025;-58
2021/11/21 00:24:40;;;;;;;20.48;9.70;;;;;;;;;;5052670;28;20453;-58
2021/11/21 00:27:06;;;;;;;24.80;10.75;;;;;;;;;;5042891;28;20037;-57
2021/11/21 00:29:33;;;;;;;23.15;10.85;;;;;;;;;;5053573;28;20115;-57
2021/11/21 00:31:59;;;;;;;21.17;9.20;;;;;;;;;;5053687;28;20037;-58
2021/11/21 00:34:25;;;;;;;22.40;10.30;;;;;;;;;;5046096;28;20044;-56
2021/11/21 00:36:51;;;;;;;24.65;10.55;;;;;;;;;;5052024;28;20037;-57
2021/11/21 00:39:17;;;;;;;21.10;9.98;;;;;;;;;;5048122;28;20063;-57
2021/11/21 00:41:42;;;;;;;21.10;9.98;;;;;;;;;;5048105;28;20456;-53
2021/11/21 00:44:09;;;;;;;24.73;10.05;;;;;;;;;;5047533;28;20052;-54
2021/11/21 00:46:35;;;;;;;24.90;9.90;;;;;;;;;;5051698;28;20032;-57
2021/11/21 00:49:02;;;;;;;19.95;10.18;;;;;;;;;;5048012;28;20025;-54
2021/11/21 00:51:28;;;;;;;18.48;9.02;;;;;;;;;;5048032;28;20387;-55
2021/11/21 00:54:04;;;;;;;20.95;10.02;;;;;;;;;;5041478;28;20025;-55
2021/11/21 00:56:30;;;;;;;23.92;10.07;;;;;;;;;;5044315;28;20116;-55
2021/11/21 00:58:56;;;;;;;20.60;9.13;;;;;;;;;;5049244;28;20025;-56
2021/11/21 01:01:22;;;;;;;23.48;10.10;;;;;;;;;;5045099;28;20105;-58
2021/11/21 01:03:49;;;;;;;21.75;9.35;;;;;;;;;;5052604;28;20511;-55
2021/11/21 01:06:15;;;;;;;23.80;9.65;;;;;;;;;;5051890;28;20021;-56
2021/11/21 01:08:41;;;;;;;23.73;9.98;;;;;;;;;;5046079;28;20044;-56
2021/11/21 01:11:07;;;;;;;22.92;9.82;;;;;;;;;;5052439;28;20462;-58
2021/11/21 01:13:35;;;;;;;21.38;9.50;;;;;;;;;;5052340;28;20040;-58
2021/11/21 01:16:01;;;;;;;25.63;10.00;;;;;;;;;;5052806;28;20028;-56
2021/11/21 01:18:27;;;;;;;21.45;9.60;;;;;;;;;;5051830;28;20460;-58
2021/11/21 01:20:53;;;;;;;23.15;9.82;;;;;;;;;;5047203;28;20123;-58
2021/11/21 01:23:19;;;;;;;20.70;9.88;;;;;;;;;;5054311;28;20055;-57
2021/11/21 01:25:47;;;;;;;20.67;9.80;;;;;;;;;;5049460;28;20035;-56
2021/11/21 01:28:13;;;;;;;24.02;9.88;;;;;;;;;;5051406;28;20025;-58
2021/11/21 01:30:40;;;;;;;22.45;10.20;;;;;;;;;;5055381;28;20047;-57
2021/11/21 01:33:06;;;;;;;22.42;10.32;;;;;;;;;;5052131;28;20048;-58
2021/11/21 01:35:32;;;;;;;22.65;10.05;;;;;;;;;;5057249;28;20364;-58
2021/11/21 01:37:59;;;;;;;24.30;11.13;;;;;;;;;;5052512;28;20051;-57
2021/11/21 01:40:25;;;;;;;22.50;10.32;;;;;;;;;;5057208;28;20028;-56
2021/11/21 01:42:52;;;;;;;25.63;10.65;;;;;;;;;;5055732;28;20055;-56
2021/11/21 01:45:18;;;;;;;23.13;10.82;;;;;;;;;;5057024;28;20531;-58
2021/11/21 01:47:46;;;;;;;20.73;10.27;;;;;;;;;;5052215;28;20112;-58
2021/11/21 01:50:15;;;;;;;21.05;10.02;;;;;;;;;;5051093;28;20542;-57
2021/11/21 01:52:41;;;;;;;22.65;10.05;;;;;;;;;;5051577;28;20047;-56
2021/11/21 01:55:08;;;;;;;19.63;9.15;;;;;;;;;;5062034;28;20139;-52
2021/11/21 01:57:34;;;;;;;18.80;10.05;;;;;;;;;;5059811;28;20087;-57
2021/11/21 02:00:02;;;;;;;21.75;9.90;;;;;;;;;;5056422;28;20032;-55
2021/11/21 02:02:29;;;;;;;20.02;9.30;;;;;;;;;;5060211;28;20473;-54
2021/11/21 02:04:55;;;;;;;20.70;9.93;;;;;;;;;;5066888;28;20063;-56
2021/11/21 02:07:21;;;;;;;20.50;10.25;;;;;;;;;;5054902;28;20099;-55
2021/11/21 02:09:47;;;;;;;22.52;10.43;;;;;;;;;;5051035;28;20041;-53
2021/11/21 02:12:13;;;;;;;20.55;9.00;;;;;;;;;;5044943;28;20021;-55
2021/11/21 02:14:39;;;;;;;22.05;10.43;;;;;;;;;;5051403;28;20025;-58
2021/11/21 02:17:05;;;;;;;24.48;10.43;;;;;;;;;;5052258;28;20404;-58
2021/11/21 02:19:31;;;;;;;27.15;9.98;;;;;;;;;;5042690;28;20472;-58
2021/11/21 02:21:57;;;;;;;23.05;9.88;;;;;;;;;;5046507;28;20124;-57
2021/11/21 02:24:23;;;;;;;24.50;10.55;;;;;;;;;;5057138;28;20071;-58
2021/11/21 02:26:49;;;;;;;21.73;9.82;;;;;;;;;;5058173;28;20449;-58
2021/11/21 02:29:15;;;;;;;18.48;9.27;;;;;;;;;;5054517;28;20104;-58
2021/11/21 02:31:41;;;;;;;21.60;10.02;;;;;;;;;;5060774;28;20362;-57
2021/11/21 02:34:08;;;;;;;24.08;10.40;;;;;;;;;;5057222;28;20690;-55
2021/11/21 02:36:34;;;;;;;22.05;10.10;;;;;;;;;;5057800;28;20068;-58
2021/11/21 02:39:00;;;;;;;28.40;12.18;;;;;;;;;;5056518;28;20381;-55
2021/11/21 02:41:27;;;;;;;36.10;11.45;;;;;;;;;;5062597;28;20107;-57
2021/11/21 02:43:54;;;;;;;23.80;10.85;;;;;;;;;;5047752;28;20083;-58
2021/11/21 02:46:20;;;;;;;25.35;10.80;;;;;;;;;;5064045;28;20478;-55
2021/11/21 02:48:46;;;;;;;25.75;12.25;;;;;;;;;;5057374;28;20029;-57
2021/11/21 02:51:13;;;;;;;25.95;11.00;;;;;;;;;;5048814;28;20469;-57
2021/11/21 02:53:40;;;;;;;25.63;11.80;;;;;;;;;;5047149;28;20045;-57
2021/11/21 02:56:09;;;;;;;26.25;11.23;;;;;;;;;;5057193;28;20492;-58
2021/11/21 02:58:36;;;;;;;26.83;11.10;;;;;;;;;;5054760;28;20143;-58
2021/11/21 03:01:07;;;;;;;27.95;12.48;;;;;;;;;;5058314;28;20035;-58
2021/11/21 03:03:33;;;;;;;30.70;12.75;;;;;;;;;;5055168;28;20036;-58
2021/11/21 03:05:59;;;;;;;26.73;11.40;;;;;;;;;;5057229;28;20025;-53
2021/11/21 03:08:25;;;;;;;28.35;11.65;;;;;;;;;;5046759;28;20432;-56
2021/11/21 03:10:53;;;;;;;31.13;12.38;;;;;;;;;;5054181;28;20032;-53
2021/11/21 03:13:19;;;;;;;23.60;11.77;;;;;;;;;;5054622;28;20566;-52
2021/11/21 03:15:45;;;;;;;27.30;12.07;;;;;;;;;;5048615;28;20458;-58
2021/11/21 03:18:11;;;;;;;22.67;10.52;;;;;;;;;;5049635;28;20044;-58
2021/11/21 03:20:38;;;;;;;29.90;12.98;;;;;;;;;;5054897;28;20053;-58
2021/11/21 03:23:05;;;;;;;31.98;13.13;;;;;;;;;;5053348;28;20155;-58
2021/11/21 03:25:31;;;;;;;27.27;11.90;;;;;;;;;;5056018;28;20122;-58
2021/11/21 03:27:57;;;;;;;32.38;11.68;;;;;;;;;;5055516;28;20036;-58
2021/11/21 03:30:24;;;;;;;29.23;11.60;;;;;;;;;;5049314;28;20049;-58
2021/11/21 03:32:50;;;;;;;25.48;11.55;;;;;;;;;;5053102;28;20049;-58
2021/11/21 03:35:17;;;;;;;26.80;11.93;;;;;;;;;;5057450;28;20318;-58
2021/11/21 03:37:43;;;;;;;29.95;13.00;;;;;;;;;;5061799;28;20016;-55
2021/11/21 03:40:11;;;;;;;28.42;12.13;;;;;;;;;;5058225;28;20029;-54
2021/11/21 03:42:38;;;;;;;30.88;12.65;;;;;;;;;;5058412;28;20132;-55
2021/11/21 03:45:04;;;;;;;26.52;12.50;;;;;;;;;;5057063;28;20021;-56
2021/11/21 03:47:30;;;;;;;28.08;11.63;;;;;;;;;;5061246;28;20032;-57
2021/11/21 03:49:56;;;;;;;29.92;13.05;;;;;;;;;;5055936;28;20473;-56
2021/11/21 03:52:22;;;;;;;29.85;12.93;;;;;;;;;;5059869;28;20044;-58
2021/11/21 03:54:48;;;;;;;30.70;12.45;;;;;;;;;;5060657;28;20029;-56
2021/11/21 03:57:14;;;;;;;30.23;11.52;;;;;;;;;;5058489;28;20453;-56
2021/11/21 03:59:40;;;;;;;29.00;11.75;;;;;;;;;;5055366;28;20726;-53
2021/11/21 04:02:06;;;;;;;33.60;12.95;;;;;;;;;;5060283;28;20500;-57
2021/11/21 04:04:33;;;;;;;29.25;11.45;;;;;;;;;;5060059;28;20041;-58
2021/11/21 04:06:59;;;;;;;32.53;12.43;;;;;;;;;;5060424;28;20029;-54
2021/11/21 04:09:25;;;;;;;27.90;11.82;;;;;;;;;;5053967;28;20037;-58
2021/11/21 04:11:51;;;;;;;27.95;12.95;;;;;;;;;;5056834;28;20082;-56
2021/11/21 04:14:18;;;;;;;27.90;12.15;;;;;;;;;;5053587;28;20428;-56
2021/11/21 04:16:44;;;;;;;28.08;13.07;;;;;;;;;;5053602;28;20651;-58
2021/11/21 04:19:10;;;;;;;29.05;12.38;;;;;;;;;;5051542;28;20029;-58
2021/11/21 04:21:36;;;;;;;25.15;11.23;;;;;;;;;;5054763;28;20104;-58
2021/11/21 04:24:03;;;;;;;29.10;12.35;;;;;;;;;;5053808;28;20035;-58
2021/11/21 04:26:29;;;;;;;26.75;11.68;;;;;;;;;;5050750;28;20151;-58
2021/11/21 04:28:55;;;;;;;26.88;12.35;;;;;;;;;;5056032;28;20551;-58
2021/11/21 04:31:21;;;;;;;26.90;12.57;;;;;;;;;;5050393;28;20024;-58
2021/11/21 04:33:47;;;;;;;26.45;11.45;;;;;;;;;;5057199;28;20113;-58
2021/11/21 04:36:13;;;;;;;28.63;11.60;;;;;;;;;;5055992;28;20043;-56
2021/11/21 04:38:39;;;;;;;28.75;12.98;;;;;;;;;;5061191;28;20431;-58
2021/11/21 04:41:05;;;;;;;28.95;11.27;;;;;;;;;;5055161;28;20033;-58
2021/11/21 04:43:31;;;;;;;30.95;12.50;;;;;;;;;;5061928;28;20067;-58
2021/11/21 04:45:57;;;;;;;30.80;12.90;;;;;;;;;;5057409;28;20025;-56
2021/11/21 04:48:24;;;;;;;28.77;11.38;;;;;;;;;;5059036;28;20032;-57
2021/11/21 04:50:50;;;;;;;27.35;12.45;;;;;;;;;;5055504;28;20111;-56
2021/11/21 04:53:16;;;;;;;29.27;12.05;;;;;;;;;;5062114;28;20029;-56
2021/11/21 04:55:42;;;;;;;29.35;11.82;;;;;;;;;;5057225;28;20052;-55
2021/11/21 04:58:08;;;;;;;27.42;10.88;;;;;;;;;;5064325;28;20071;-58
2021/11/21 05:00:34;;;;;;;28.67;12.15;;;;;;;;;;5055798;28;20056;-58
2021/11/21 05:03:00;;;;;;;29.77;12.27;;;;;;;;;;5059424;28;20087;-56
2021/11/21 05:05:26;;;;;;;29.27;12.35;;;;;;;;;;5059666;28;20028;-57
2021/11/21 05:07:53;;;;;;;29.77;12.88;;;;;;;;;;5066865;28;20491;-52
2021/11/21 05:10:20;;;;;;;28.60;12.25;;;;;;;;;;5051278;28;20031;-56
2021/11/21 05:12:46;;;;;;;29.02;11.50;;;;;;;;;;5055136;28;20507;-57
2021/11/21 05:15:14;;;;;;;23.73;10.48;;;;;;;;;;5051764;28;20432;-58
2021/11/21 05:17:40;;;;;;;31.85;13.55;;;;;;;;;;5052670;28;20029;-57
2021/11/21 05:20:07;;;;;;;28.60;12.70;;;;;;;;;;5053088;28;20039;-58
2021/11/21 05:22:33;;;;;;;25.73;11.90;;;;;;;;;;5053105;28;20115;-58
2021/11/21 05:24:59;;;;;;;27.02;11.60;;;;;;;;;;5054301;28;20029;-58
2021/11/21 05:27:25;;;;;;;29.55;12.20;;;;;;;;;;5053474;28;20040;-55
2021/11/21 05:29:54;;;;;;;30.08;11.45;;;;;;;;;;5049163;28;20140;-58
2021/11/21 05:32:21;;;;;;;27.20;11.45;;;;;;;;;;5054147;28;20055;-57
2021/11/21 05:34:47;;;;;;;25.30;11.00;;;;;;;;;;5054561;28;20531;-55
2021/11/21 05:37:13;;;;;;;23.67;10.73;;;;;;;;;;5054630;28;20138;-56
2021/11/21 05:39:39;;;;;;;23.60;9.90;;;;;;;;;;5060451;28;20048;-57
2021/11/21 05:42:05;;;;;;;28.73;11.10;;;;;;;;;;5055492;28;20083;-55
2021/11/21 05:44:31;;;;;;;27.52;10.80;;;;;;;;;;5057015;28;20044;-53
2021/11/21 05:46:57;;;;;;;29.70;11.35;;;;;;;;;;5058031;28;20106;-57
2021/11/21 05:49:23;;;;;;;21.27;9.10;;;;;;;;;;5058019;28;20052;-58
2021/11/21 05:51:49;;;;;;;24.55;10.50;;;;;;;;;;5051524;28;20033;-55
2021/11/21 05:54:15;;;;;;;24.70;10.90;;;;;;;;;;5056867;28;20520;-53
2021/11/21 05:56:41;;;;;;;26.10;10.82;;;;;;;;;;5055308;28;20029;-54
2021/11/21 05:59:07;;;;;;;26.95;10.60;;;;;;;;;;5063337;28;20035;-56
2021/11/21 06:01:33;;;;;;;24.30;9.57;;;;;;;;;;5052962;28;20587;-56
2021/11/21 06:03:59;;;;;;;21.52;11.02;;;;;;;;;;5056238;28;20032;-56
2021/11/21 06:06:25;;;;;;;24.25;11.05;;;;;;;;;;5055851;28;20023;-53
2021/11/21 06:08:51;;;;;;;22.30;10.15;;;;;;;;;;5062468;28;20036;-58
2021/11/21 06:11:18;;;;;;;26.55;10.20;;;;;;;;;;5056353;28;20029;-56
2021/11/21 06:13:44;;;;;;;24.67;10.30;;;;;;;;;;5051460;28;20033;-54
2021/11/21 06:16:10;;;;;;;22.02;9.63;;;;;;;;;;5051282;28;20485;-58
2021/11/21 06:18:36;;;;;;;24.67;9.98;;;;;;;;;;5051246;28;20539;-58
2021/11/21 06:21:02;;;;;;;23.13;10.43;;;;;;;;;;5050589;28;20036;-58
2021/11/21 06:23:35;;;;;;;28.77;10.77;;;;;;;;;;5051425;28;20021;-57
2021/11/21 06:26:05;;;;;;;18.30;9.55;;;;;;;;;;5044336;28;20078;-57
2021/11/21 06:28:31;;;;;;;22.83;9.48;;;;;;;;;;5052474;28;20124;-58
2021/11/21 06:30:57;;;;;;;22.48;9.88;;;;;;;;;;5056220;28;20032;-54
2021/11/21 06:33:23;;;;;;;23.80;9.68;;;;;;;;;;5051862;28;20090;-55
2021/11/21 06:35:50;;;;;;;23.00;9.75;;;;;;;;;;5057501;28;20036;-56
2021/11/21 06:38:17;;;;;;;23.30;9.18;;;;;;;;;;5054175;28;20423;-55
2021/11/21 06:40:43;;;;;;;24.67;9.93;;;;;;;;;;5059036;28;20035;-55
2021/11/21 06:43:09;;;;;;;25.52;10.32;;;;;;;;;;5056162;28;20029;-56
2021/11/21 06:45:35;;;;;;;21.42;9.82;;;;;;;;;;5055528;28;20487;-55
2021/11/21 06:48:01;;;;;;;23.60;9.68;;;;;;;;;;5051243;28;20086;-56
2021/11/21 06:50:27;;;;;;;19.17;8.27;;;;;;;;;;5052079;28;20029;-53
2021/11/21 06:52:55;;;;;;;21.85;8.43;;;;;;;;;;5051653;28;20037;-54
2021/11/21 06:55:21;;;;;;;19.40;9.38;;;;;;;;;;5052323;28;20574;-53
2021/11/21 06:57:47;;;;;;;20.70;8.73;;;;;;;;;;5052589;28;20032;-55
2021/11/21 07:00:15;;;;;;;20.58;8.48;;;;;;;;;;5058098;28;20445;-54
2021/11/21 07:02:41;;;;;;;23.95;9.27;;;;;;;;;;5052152;28;20037;-53
2021/11/21 07:05:07;;;;;;;21.50;9.77;;;;;;;;;;5059954;28;20374;-53
2021/11/21 07:07:34;;;;;;;20.50;8.40;;;;;;;;;;5041345;28;20070;-54
2021/11/21 07:10:00;;;;;;;19.60;8.30;;;;;;;;;;5058639;28;20035;-56
2021/11/21 07:12:26;;;;;;;18.83;9.15;;;;;;;;;;5048723;28;20500;-53
2021/11/21 07:14:52;;;;;;;19.25;7.95;;;;;;;;;;5055167;28;20029;-56
2021/11/21 07:17:18;;;;;;;20.13;8.07;;;;;;;;;;5054194;28;20032;-52
2021/11/21 07:19:44;;;;;;;20.52;9.82;;;;;;;;;;5053823;28;20025;-57
2021/11/21 07:22:10;;;;;;;21.85;8.95;;;;;;;;;;5053670;28;20024;-58
2021/11/21 07:24:36;;;;;;;23.38;8.90;;;;;;;;;;5053380;28;20373;-58
2021/11/21 07:27:02;;;;;;;19.40;8.43;;;;;;;;;;5054813;28;20056;-54
2021/11/21 07:29:29;;;;;;;19.05;7.95;;;;;;;;;;5051421;28;20029;-57
2021/11/21 07:31:58;;;;;;;20.67;7.88;;;;;;;;;;5057233;28;20103;-55
2021/11/21 07:34:24;;;;;;;22.17;8.35;;;;;;;;;;5049462;28;20084;-56
2021/11/21 07:36:50;;;;;;;16.85;7.85;;;;;;;;;;5057870;28;20476;-53
2021/11/21 07:39:16;;;;;;;17.63;8.43;;;;;;;;;;5049171;28;20025;-56
2021/11/21 07:41:42;;;;;;;18.13;7.82;;;;;;;;;;5054080;28;20120;-56
2021/11/21 07:44:09;;;;;;;17.10;7.85;;;;;;;;;;5057551;28;20112;-58
2021/11/21 07:46:35;;;;;;;14.43;6.57;;;;;;;;;;5060950;28;20031;-53
2021/11/21 07:49:01;;;;;;;17.77;7.15;;;;;;;;;;5056706;28;20025;-57
2021/11/21 07:51:27;;;;;;;19.02;7.63;;;;;;;;;;5060175;28;20128;-53
2021/11/21 07:53:53;;;;;;;18.95;7.40;;;;;;;;;;5061191;28;20103;-52
2021/11/21 07:56:20;;;;;;;19.65;8.20;;;;;;;;;;5053624;28;20268;-57
2021/11/21 07:58:46;;;;;;;17.40;7.43;;;;;;;;;;5052353;28;20043;-56
2021/11/21 08:01:12;;;;;;;23.25;7.55;;;;;;;;;;5058454;28;20036;-57
2021/11/21 08:03:38;;;;;;;14.95;7.25;;;;;;;;;;5062394;28;20028;-57
2021/11/21 08:06:04;;;;;;;17.50;7.82;;;;;;;;;;5051623;28;20415;-53
2021/11/21 08:08:30;;;;;;;18.00;8.43;;;;;;;;;;5053166;28;20037;-54
2021/11/21 08:10:57;;;;;;;17.70;7.35;;;;;;;;;;5057321;28;20036;-56
2021/11/21 08:13:26;;;;;;;16.08;7.63;;;;;;;;;;5050932;28;20036;-54
2021/11/21 08:15:52;;;;;;;18.38;7.78;;;;;;;;;;5053392;28;20112;-57
2021/11/21 08:18:18;;;;;;;24.90;8.15;;;;;;;;;;5050183;28;20611;-57
2021/11/21 08:20:43;;;;;;;21.27;8.43;;;;;;;;;;5052815;28;20053;-58
2021/11/21 08:23:09;;;;;;;20.70;8.23;;;;;;;;;;5054825;28;20155;-58
2021/11/21 08:25:35;;;;;;;18.95;7.90;;;;;;;;;;5052946;28;20029;-58
2021/11/21 08:28:01;;;;;;;18.92;8.00;;;;;;;;;;5056413;28;20057;-58
2021/11/21 08:30:30;;;;;;;24.42;8.40;;;;;;;;;;5055174;28;20453;-58
2021/11/21 08:32:56;;;;;;;16.83;7.70;;;;;;;;;;5050656;28;20053;-56
2021/11/21 08:35:22;;;;;;;18.75;8.18;;;;;;;;;;5056332;28;20048;-55
2021/11/21 08:37:48;;;;;;;20.05;8.32;;;;;;;;;;5057802;28;20040;-56
2021/11/21 08:40:14;;;;;;;17.50;8.73;;;;;;;;;;5052234;28;20111;-56
2021/11/21 08:42:40;;;;;;;20.15;7.20;;;;;;;;;;5051386;28;20029;-57
2021/11/21 08:45:08;;;;;;;24.50;9.18;;;;;;;;;;5060144;28;20021;-55
2021/11/21 08:47:34;;;;;;;21.88;8.95;;;;;;;;;;5056967;28;20035;-58
2021/11/21 08:50:01;;;;;;;20.40;8.48;;;;;;;;;;5058091;28;20049;-54
2021/11/21 08:52:27;;;;;;;20.33;8.27;;;;;;;;;;5051323;28;20042;-57
2021/11/21 08:54:53;;;;;;;23.33;9.85;;;;;;;;;;5055462;28;20358;-58
2021/11/21 08:57:19;;;;;;;20.40;8.50;;;;;;;;;;5059706;28;20040;-56
2021/11/21 08:59:45;;;;;;;21.40;8.38;;;;;;;;;;5056991;28;20029;-56
2021/11/21 09:02:11;;;;;;;19.77;8.18;;;;;;;;;;5059064;28;20033;-54
2021/11/21 09:04:37;;;;;;;21.58;7.93;;;;;;;;;;5039487;28;20037;-56
2021/11/21 09:07:03;;;;;;;20.25;8.50;;;;;;;;;;5052123;28;20028;-56
2021/11/21 09:09:29;;;;;;;21.15;8.52;;;;;;;;;;5050550;28;20037;-56
2021/11/21 09:11:55;;;;;;;23.55;8.20;;;;;;;;;;5063706;28;20029;-57
2021/11/21 09:14:21;;;;;;;26.25;9.85;;;;;;;;;;5052120;28;20116;-58
2021/11/21 09:16:47;;;;;;;21.25;7.97;;;;;;;;;;5047160;28;20708;-55
2021/11/21 09:19:13;;;;;;;22.73;8.70;;;;;;;;;;5049223;28;20029;-57
2021/11/21 09:21:39;;;;;;;19.80;8.27;;;;;;;;;;5049388;28;20479;-58
2021/11/21 09:24:06;;;;;;;22.73;9.40;;;;;;;;;;5053505;28;20071;-58
2021/11/21 09:26:32;;;;;;;23.05;9.18;;;;;;;;;;5048446;28;20087;-58
2021/11/21 09:28:58;;;;;;;20.52;8.82;;;;;;;;;;5048727;28;20457;-58
2021/11/21 09:31:24;;;;;;;19.63;9.13;;;;;;;;;;5055790;28;20059;-58
2021/11/21 09:33:50;;;;;;;18.52;7.75;;;;;;;;;;5054017;28;20041;-58
2021/11/21 09:36:16;;;;;;;19.38;7.80;;;;;;;;;;5055466;28;20060;-58
2021/11/21 09:38:43;;;;;;;19.13;8.50;;;;;;;;;;5051430;28;20063;-56
2021/11/21 09:41:09;;;;;;;23.25;9.05;;;;;;;;;;5054450;28;20040;-56
2021/11/21 09:43:35;;;;;;;20.67;8.05;;;;;;;;;;5055332;28;20079;-54
2021/11/21 09:46:01;;;;;;;19.35;8.60;;;;;;;;;;5057056;28;20024;-56
2021/11/21 09:48:31;;;;;;;20.55;8.68;;;;;;;;;;5055330;28;20017;-58
2021/11/21 09:50:57;;;;;;;18.63;8.50;;;;;;;;;;5059383;28;20120;-55
2021/11/21 09:53:23;;;;;;;18.52;8.05;;;;;;;;;;5051723;28;20044;-55
2021/11/21 09:55:49;;;;;;;21.60;8.57;;;;;;;;;;5053718;28;20028;-57
2021/11/21 09:58:15;;;;;;;21.10;8.90;;;;;;;;;;5059257;28;20488;-54
2021/11/21 10:00:41;;;;;;;19.15;8.50;;;;;;;;;;5048609;28;20052;-54
2021/11/21 10:03:08;;;;;;;18.30;8.25;;;;;;;;;;5046865;28;20036;-58
2021/11/21 10:05:36;;;;;;;18.67;8.57;;;;;;;;;;5048199;28;20052;-57
2021/11/21 10:08:05;;;;;;;14.77;7.50;;;;;;;;;;5048083;28;20017;-57
2021/11/21 10:10:57;;;;;;;21.10;8.70;;;;;;;;;;5048156;28;20051;-56
2021/11/21 10:13:33;;;;;;;23.00;8.07;;;;;;;;;;5051219;28;20048;-57
2021/11/21 10:16:17;;;;;;;20.33;8.68;;;;;;;;;;5050027;28;20037;-57
2021/11/21 10:18:54;;;;;;;17.88;7.38;;;;;;;;;;5047973;28;20408;-58
2021/11/21 10:21:25;;;;;;;17.38;7.60;;;;;;;;;;5043992;28;20385;-58
2021/11/21 10:24:09;;;;;;;18.08;7.80;;;;;;;;;;5049671;28;20135;-58
2021/11/21 10:26:35;;;;;;;18.58;8.15;;;;;;;;;;5047005;28;20468;-58
2021/11/21 10:29:01;;;;;;;18.40;7.43;;;;;;;;;;5050560;28;20036;-58
2021/11/21 10:31:31;;;;;;;18.85;7.63;;;;;;;;;;5042959;28;20686;-58
2021/11/21 10:33:59;;;;;;;18.20;7.57;;;;;;;;;;5048985;28;20292;-53
2021/11/21 10:36:29;;;;;;;16.60;7.55;;;;;;;;;;5049406;28;20082;-57
2021/11/21 10:39:04;;;;;;;18.17;7.75;;;;;;;;;;5045283;28;20116;-58
2021/11/21 10:41:37;;;;;;;16.02;7.35;;;;;;;;;;5050731;28;20033;-57
2021/11/21 10:44:03;;;;;;;15.85;6.32;;;;;;;;;;5052843;28;20378;-58
2021/11/21 10:46:29;;;;;;;17.55;7.20;;;;;;;;;;5051860;28;20076;-56
2021/11/21 10:49:18;;;;;;;18.88;7.38;;;;;;;;;;5051480;28;20024;-57
2021/11/21 10:51:45;;;;;;;19.65;7.63;;;;;;;;;;5052907;28;20385;-57
2021/11/21 10:54:21;;;;;;;18.52;7.72;;;;;;;;;;5053561;28;20522;-56
2021/11/21 10:56:51;;;;;;;13.90;6.88;;;;;;;;;;5053204;28;20028;-56
2021/11/21 10:59:34;;;;;;;19.65;7.93;;;;;;;;;;5050858;28;20033;-56
2021/11/21 11:02:04;;;;;;;12.52;6.47;;;;;;;;;;5050003;28;20112;-57
2021/11/21 11:04:30;;;;;;;14.85;7.18;;;;;;;;;;5047749;28;20473;-57
2021/11/21 11:06:56;;;;;;;15.07;7.20;;;;;;;;;;5051621;28;20054;-57
2021/11/21 11:09:25;;;;;;;14.35;6.43;;;;;;;;;;5050464;28;20022;-58
2021/11/21 11:11:52;;;;;;;16.83;8.02;;;;;;;;;;5046350;28;20037;-57
2021/11/21 11:14:19;;;;;;;13.55;7.03;;;;;;;;;;5050428;28;20051;-57
2021/11/21 11:16:54;;;;;;;12.10;6.22;;;;;;;;;;5053977;28;20025;-54
2021/11/21 11:19:22;;;;;;;16.17;6.93;;;;;;;;;;5046938;28;20029;-57
2021/11/21 11:21:50;;;;;;;13.00;6.65;;;;;;;;;;5053005;28;20037;-58
2021/11/21 11:24:18;;;;;;;13.80;7.10;;;;;;;;;;5050923;28;20033;-57
2021/11/21 11:26:44;;;;;;;14.02;6.28;;;;;;;;;;5050951;28;20108;-57
2021/11/21 11:29:13;;;;;;;16.38;7.10;;;;;;;;;;5047149;28;20104;-56
2021/11/21 11:31:39;;;;;;;14.52;7.07;;;;;;;;;;5046967;28;20029;-54
2021/11/21 11:34:05;;;;;;;13.20;6.38;;;;;;;;;;5046199;28;20076;-58
2021/11/21 11:36:32;;;;;;;13.80;6.80;;;;;;;;;;5049396;28;20047;-58
2021/11/21 11:39:09;;;;;;;13.00;6.28;;;;;;;;;;5051694;28;20025;-58
2021/11/21 11:41:35;;;;;;;15.90;7.15;;;;;;;;;;5049168;28;20029;-58
2021/11/21 11:44:04;;;;;;;15.48;6.63;;;;;;;;;;5040890;28;20846;-58
2021/11/21 11:46:34;;;;;;;14.45;6.80;;;;;;;;;;5042615;28;20037;-58
2021/11/21 11:49:10;;;;;;;12.77;6.88;;;;;;;;;;5050241;28;20452;-58
2021/11/21 11:51:40;;;;;;;14.57;6.65;;;;;;;;;;5055554;28;20032;-58
2021/11/21 11:54:15;;;;;;;14.70;6.70;;;;;;;;;;5053218;28;20025;-57
2021/11/21 11:56:42;;;;;;;11.88;5.70;;;;;;;;;;5050825;28;20063;-58
2021/11/21 11:59:10;;;;;;;14.18;6.20;;;;;;;;;;5040738;28;20087;-57
2021/11/21 12:01:39;;;;;;;12.77;6.63;;;;;;;;;;5049837;28;20094;-58
2021/11/21 12:04:06;;;;;;;14.25;6.50;;;;;;;;;;5046213;28;20511;-58
2021/11/21 12:06:36;;;;;;;13.77;6.53;;;;;;;;;;5052122;28;20112;-58
2021/11/21 12:09:20;;;;;;;11.73;6.60;;;;;;;;;;5056182;28;20052;-58
2021/11/21 12:11:53;;;;;;;14.23;6.80;;;;;;;;;;5054716;28;20060;-58
2021/11/21 12:14:28;;;;;;;15.07;6.68;;;;;;;;;;5054396;28;20056;-58
2021/11/21 12:16:57;;;;;;;14.82;7.40;;;;;;;;;;5052317;28;20051;-58
2021/11/21 12:19:40;;;;;;;15.80;6.80;;;;;;;;;;5049312;28;20075;-58
2021/11/21 12:22:06;;;;;;;12.32;5.85;;;;;;;;;;5060489;28;20037;-59
2021/11/21 12:24:33;;;;;;;16.13;6.68;;;;;;;;;;5053578;28;20025;-58
2021/11/21 12:27:00;;;;;;;14.13;6.70;;;;;;;;;;5045605;28;20090;-59
2021/11/21 12:29:28;;;;;;;14.95;6.22;;;;;;;;;;5052163;28;20013;-58
2021/11/21 12:31:55;;;;;;;14.38;6.45;;;;;;;;;;5051220;28;20032;-58
2021/11/21 12:34:28;;;;;;;14.52;6.43;;;;;;;;;;5048172;28;20920;-58
2021/11/21 12:37:11;;;;;;;14.55;7.03;;;;;;;;;;5048939;28;20044;-58
2021/11/21 12:39:37;;;;;;;13.88;6.93;;;;;;;;;;5050769;28;20021;-58
2021/11/21 12:42:05;;;;;;;14.55;7.05;;;;;;;;;;5053146;28;20103;-57
2021/11/21 12:44:31;;;;;;;11.32;6.28;;;;;;;;;;5049807;28;20338;-58
2021/11/21 12:47:04;;;;;;;15.00;7.05;;;;;;;;;;5053073;28;20036;-58
2021/11/21 12:49:30;;;;;;;13.30;6.63;;;;;;;;;;5050654;28;20025;-58
2021/11/21 12:52:04;;;;;;;11.73;6.40;;;;;;;;;;5051085;28;20423;-57
2021/11/21 12:54:30;;;;;;;15.73;6.65;;;;;;;;;;5048153;28;20037;-57
2021/11/21 12:56:56;;;;;;;11.63;5.82;;;;;;;;;;5052154;28;20112;-55
2021/11/21 12:59:42;;;;;;;12.68;5.80;;;;;;;;;;5051981;28;20032;-58
2021/11/21 13:02:11;;;;;;;11.57;5.72;;;;;;;;;;5053714;28;20098;-58
2021/11/21 13:04:58;;;;;;;11.93;6.40;;;;;;;;;;5051215;28;20055;-58
2021/11/21 13:07:26;;;;;;;14.18;6.50;;;;;;;;;;5050491;28;20025;-58
2021/11/21 13:09:57;;;;;;;15.38;5.95;;;;;;;;;;5056741;28;20021;-58
2021/11/21 13:12:27;;;;;;;17.90;6.07;;;;;;;;;;5054565;28;20437;-55
2021/11/21 13:15:01;;;;;;;14.50;6.47;;;;;;;;;;5056964;28;20071;-56
2021/11/21 13:17:27;;;;;;;12.88;6.88;;;;;;;;;;5059051;28;20040;-56
2021/11/21 13:20:04;;;;;;;10.88;5.50;;;;;;;;;;5051398;28;20029;-56
2021/11/21 13:22:50;;;;;;;12.68;5.88;;;;;;;;;;5053116;28;20044;-58
2021/11/21 13:25:35;;;;;;;11.90;5.93;;;;;;;;;;5046488;28;20034;-57
2021/11/21 13:28:19;;;;;;;15.50;6.03;;;;;;;;;;5048997;28;20036;-58
2021/11/21 13:30:45;;;;;;;13.43;6.63;;;;;;;;;;5046053;28;20033;-55
2021/11/21 13:33:15;;;;;;;11.60;5.60;;;;;;;;;;5041429;28;20061;-58
2021/11/21 13:35:41;;;;;;;10.82;5.45;;;;;;;;;;5048602;28;20033;-58
2021/11/21 13:38:07;;;;;;;12.00;5.55;;;;;;;;;;5049533;28;20178;-58
2021/11/21 13:40:33;;;;;;;14.63;6.35;;;;;;;;;;5050568;28;20112;-58
2021/11/21 13:43:06;;;;;;;12.10;6.20;;;;;;;;;;5050989;28;20082;-57
2021/11/21 13:45:32;;;;;;;12.13;5.55;;;;;;;;;;5051055;28;20033;-58
2021/11/21 13:47:59;;;;;;;14.73;5.80;;;;;;;;;;5051155;28;20035;-58
2021/11/21 13:50:30;;;;;;;12.90;5.95;;;;;;;;;;5052671;28;20056;-57
2021/11/21 13:52:57;;;;;;;9.38;4.82;;;;;;;;;;5046009;28;20021;-57
2021/11/21 13:55:24;;;;;;;11.55;5.55;;;;;;;;;;5048653;28;20036;-57
2021/11/21 13:57:53;;;;;;;10.88;5.63;;;;;;;;;;5048162;28;20550;-58
2021/11/21 14:00:21;;;;;;;10.70;6.10;;;;;;;;;;5049787;28;20060;-58
2021/11/21 14:02:48;;;;;;;11.75;5.60;;;;;;;;;;5053108;28;20040;-56
2021/11/21 14:05:18;;;;;;;12.23;5.70;;;;;;;;;;5053481;28;20106;-56
2021/11/21 14:07:57;;;;;;;10.05;5.20;;;;;;;;;;5053103;28;20111;-56
2021/11/21 14:10:26;;;;;;;12.32;5.63;;;;;;;;;;5050787;28;20040;-56
2021/11/21 14:13:05;;;;;;;9.90;5.07;;;;;;;;;;5050298;28;20024;-55
2021/11/21 14:15:31;;;;;;;11.57;5.05;;;;;;;;;;5056572;28;20032;-56
2021/11/21 14:17:59;;;;;;;10.15;4.55;;;;;;;;;;5047901;28;20036;-55
2021/11/21 14:20:45;;;;;;;11.80;4.57;;;;;;;;;;5047500;28;20049;-54
2021/11/21 14:23:17;;;;;;;10.38;4.93;;;;;;;;;;5054599;28;20061;-57
2021/11/21 14:25:45;;;;;;;12.23;5.22;;;;;;;;;;5047970;28;20136;-58
2021/11/21 14:28:14;;;;;;;9.80;4.18;;;;;;;;;;5044965;28;20103;-57